sensor_id;sensor_type;location;lat;lon;timestamp;P1;durP1;ratioP1;P2;durP2;ratioP2
22007;SDS011;11168;56.976;24.168;2023-04-12T00:02:18;9.45;;;6.28;;
22007;SDS011;11168;56.976;24.168;2023-04-12T00:04:46;8.68;;;5.90;;
22007;SDS011;11168;56.976;24.168;2023-04-12T00:07:21;7.60;;;5.75;;
22007;SDS011;11168;56.976;24.168;2023-04-12T00:09:49;10.00;;;6.35;;
22007;SDS011;11168;56.976;24.168;2023-04-12T00:12:17;8.95;;;6.25;;
22007;SDS011;11168;56.976;24.168;2023-04-12T00:14:44;7.78;;;5.85;;
22007;SDS011;11168;56.976;24.168;2023-04-12T00:17:12;10.00;;;5.95;;
22007;SDS011;11168;56.976;24.168;2023-04-12T00:19:39;9.80;;;6.47;;
22007;SDS011;11168;56.976;24.168;2023-04-12T00:22:10;12.15;;;6.30;;
22007;SDS011;11168;56.976;24.168;2023-04-12T00:24:38;10.93;;;6.68;;
22007;SDS011;11168;56.976;24.168;2023-04-12T00:27:06;10.57;;;6.05;;
22007;SDS011;11168;56.976;24.168;2023-04-12T00:29:33;11.15;;;6.72;;
22007;SDS011;11168;56.976;24.168;2023-04-12T00:32:01;7.93;;;6.15;;
22007;SDS011;11168;56.976;24.168;2023-04-12T00:34:30;9.98;;;6.53;;
22007;SDS011;11168;56.976;24.168;2023-04-12T00:36:58;8.10;;;6.65;;
22007;SDS011;11168;56.976;24.168;2023-04-12T00:39:26;9.95;;;6.47;;
22007;SDS011;11168;56.976;24.168;2023-04-12T00:41:53;10.98;;;6.80;;
22007;SDS011;11168;56.976;24.168;2023-04-12T00:44:22;9.52;;;6.28;;
22007;SDS011;11168;56.976;24.168;2023-04-12T00:46:50;9.52;;;6.47;;
22007;SDS011;11168;56.976;24.168;2023-04-12T00:49:17;8.02;;;6.30;;
22007;SDS011;11168;56.976;24.168;2023-04-12T00:51:44;11.13;;;6.72;;
22007;SDS011;11168;56.976;24.168;2023-04-12T00:54:12;11.73;;;7.10;;
22007;SDS011;11168;56.976;24.168;2023-04-12T00:56:43;10.60;;;7.03;;
22007;SDS011;11168;56.976;24.168;2023-04-12T00:59:12;9.27;;;6.70;;
22007;SDS011;11168;56.976;24.168;2023-04-12T01:01:39;9.00;;;7.05;;
22007;SDS011;11168;56.976;24.168;2023-04-12T01:04:07;9.25;;;6.72;;
22007;SDS011;11168;56.976;24.168;2023-04-12T01:15:05;8.52;;;6.85;;
22007;SDS011;11168;56.976;24.168;2023-04-12T01:18:20;11.10;;;6.68;;
22007;SDS011;11168;56.976;24.168;2023-04-12T01:20:25;9.32;;;6.85;;
22007;SDS011;11168;56.976;24.168;2023-04-12T01:28:14;10.05;;;6.70;;
22007;SDS011;11168;56.976;24.168;2023-04-12T01:30:42;12.63;;;7.32;;
22007;SDS011;11168;56.976;24.168;2023-04-12T01:33:10;9.70;;;7.22;;
22007;SDS011;11168;56.976;24.168;2023-04-12T01:35:38;10.00;;;7.63;;
22007;SDS011;11168;56.976;24.168;2023-04-12T01:38:06;10.48;;;7.53;;
22007;SDS011;11168;56.976;24.168;2023-04-12T01:40:34;11.18;;;7.25;;
22007;SDS011;11168;56.976;24.168;2023-04-12T01:43:11;10.88;;;7.32;;
22007;SDS011;11168;56.976;24.168;2023-04-12T01:45:38;10.85;;;7.50;;
22007;SDS011;11168;56.976;24.168;2023-04-12T01:48:07;11.38;;;7.20;;
22007;SDS011;11168;56.976;24.168;2023-04-12T01:53:31;10.32;;;7.22;;
22007;SDS011;11168;56.976;24.168;2023-04-12T01:56:05;11.25;;;6.85;;
22007;SDS011;11168;56.976;24.168;2023-04-12T01:58:34;13.07;;;7.50;;
22007;SDS011;11168;56.976;24.168;2023-04-12T02:01:02;9.55;;;7.20;;
22007;SDS011;11168;56.976;24.168;2023-04-12T02:03:31;11.52;;;7.57;;
22007;SDS011;11168;56.976;24.168;2023-04-12T02:05:59;9.75;;;7.25;;
22007;SDS011;11168;56.976;24.168;2023-04-12T02:08:28;11.13;;;7.80;;
22007;SDS011;11168;56.976;24.168;2023-04-12T02:10:55;9.55;;;7.30;;
22007;SDS011;11168;56.976;24.168;2023-04-12T02:13:22;10.25;;;7.50;;
22007;SDS011;11168;56.976;24.168;2023-04-12T02:15:51;9.73;;;7.38;;
22007;SDS011;11168;56.976;24.168;2023-04-12T02:18:22;10.43;;;7.40;;
22007;SDS011;11168;56.976;24.168;2023-04-12T02:20:49;9.80;;;7.38;;
22007;SDS011;11168;56.976;24.168;2023-04-12T02:23:16;11.55;;;7.95;;
22007;SDS011;11168;56.976;24.168;2023-04-12T02:25:44;12.57;;;7.72;;
22007;SDS011;11168;56.976;24.168;2023-04-12T02:28:12;9.25;;;7.18;;
22007;SDS011;11168;56.976;24.168;2023-04-12T02:30:39;10.05;;;7.47;;
22007;SDS011;11168;56.976;24.168;2023-04-12T02:33:07;10.27;;;7.10;;
22007;SDS011;11168;56.976;24.168;2023-04-12T02:35:38;11.82;;;7.93;;
22007;SDS011;11168;56.976;24.168;2023-04-12T02:38:05;11.85;;;7.90;;
22007;SDS011;11168;56.976;24.168;2023-04-12T02:40:36;10.52;;;7.72;;
22007;SDS011;11168;56.976;24.168;2023-04-12T02:43:06;11.20;;;8.05;;
22007;SDS011;11168;56.976;24.168;2023-04-12T02:45:33;10.90;;;7.18;;
22007;SDS011;11168;56.976;24.168;2023-04-12T02:48:01;9.95;;;7.40;;
22007;SDS011;11168;56.976;24.168;2023-04-12T02:50:30;12.20;;;7.78;;
22007;SDS011;11168;56.976;24.168;2023-04-12T02:52:57;10.75;;;7.68;;
22007;SDS011;11168;56.976;24.168;2023-04-12T02:55:25;14.00;;;7.95;;
22007;SDS011;11168;56.976;24.168;2023-04-12T02:57:52;11.40;;;7.88;;
22007;SDS011;11168;56.976;24.168;2023-04-12T03:00:20;12.15;;;7.43;;
22007;SDS011;11168;56.976;24.168;2023-04-12T03:02:47;10.55;;;7.57;;
22007;SDS011;11168;56.976;24.168;2023-04-12T03:05:17;11.90;;;8.05;;
22007;SDS011;11168;56.976;24.168;2023-04-12T03:07:44;12.63;;;8.18;;
22007;SDS011;11168;56.976;24.168;2023-04-12T03:10:11;11.07;;;7.25;;
22007;SDS011;11168;56.976;24.168;2023-04-12T03:12:39;10.55;;;7.32;;
22007;SDS011;11168;56.976;24.168;2023-04-12T03:15:06;11.15;;;7.90;;
22007;SDS011;11168;56.976;24.168;2023-04-12T03:17:34;14.18;;;7.28;;
22007;SDS011;11168;56.976;24.168;2023-04-12T03:20:07;11.30;;;8.02;;
22007;SDS011;11168;56.976;24.168;2023-04-12T03:22:35;9.90;;;7.70;;
22007;SDS011;11168;56.976;24.168;2023-04-12T03:25:03;10.65;;;7.40;;
22007;SDS011;11168;56.976;24.168;2023-04-12T03:27:31;9.50;;;7.47;;
22007;SDS011;11168;56.976;24.168;2023-04-12T03:29:58;9.90;;;7.43;;
22007;SDS011;11168;56.976;24.168;2023-04-12T03:32:26;11.63;;;7.90;;
22007;SDS011;11168;56.976;24.168;2023-04-12T03:34:53;10.20;;;7.72;;
22007;SDS011;11168;56.976;24.168;2023-04-12T03:37:20;11.63;;;7.63;;
22007;SDS011;11168;56.976;24.168;2023-04-12T03:39:47;9.57;;;7.70;;
22007;SDS011;11168;56.976;24.168;2023-04-12T03:42:15;10.07;;;7.50;;
22007;SDS011;11168;56.976;24.168;2023-04-12T03:44:58;9.77;;;7.43;;
22007;SDS011;11168;56.976;24.168;2023-04-12T03:47:27;11.60;;;7.43;;
22007;SDS011;11168;56.976;24.168;2023-04-12T03:49:54;10.95;;;8.00;;
22007;SDS011;11168;56.976;24.168;2023-04-12T03:52:38;13.20;;;7.57;;
22007;SDS011;11168;56.976;24.168;2023-04-12T03:55:05;13.05;;;8.23;;
22007;SDS011;11168;56.976;24.168;2023-04-12T03:57:33;11.77;;;7.80;;
22007;SDS011;11168;56.976;24.168;2023-04-12T04:00:01;10.05;;;7.55;;
22007;SDS011;11168;56.976;24.168;2023-04-12T04:02:29;9.45;;;7.15;;
22007;SDS011;11168;56.976;24.168;2023-04-12T04:04:57;10.13;;;7.50;;
22007;SDS011;11168;56.976;24.168;2023-04-12T04:07:24;10.60;;;7.13;;
22007;SDS011;11168;56.976;24.168;2023-04-12T04:09:55;10.95;;;7.28;;
22007;SDS011;11168;56.976;24.168;2023-04-12T04:12:22;9.63;;;7.10;;
22007;SDS011;11168;56.976;24.168;2023-04-12T04:14:49;10.82;;;7.85;;
22007;SDS011;11168;56.976;24.168;2023-04-12T04:17:16;12.23;;;7.55;;
22007;SDS011;11168;56.976;24.168;2023-04-12T04:19:44;13.48;;;7.63;;
22007;SDS011;11168;56.976;24.168;2023-04-12T04:22:11;12.43;;;7.60;;
22007;SDS011;11168;56.976;24.168;2023-04-12T04:24:39;12.05;;;7.90;;
22007;SDS011;11168;56.976;24.168;2023-04-12T04:27:06;13.23;;;7.68;;
22007;SDS011;11168;56.976;24.168;2023-04-12T04:29:33;12.50;;;7.55;;
22007;SDS011;11168;56.976;24.168;2023-04-12T04:32:02;18.80;;;8.48;;
22007;SDS011;11168;56.976;24.168;2023-04-12T04:34:29;11.77;;;8.13;;
22007;SDS011;11168;56.976;24.168;2023-04-12T04:36:57;13.95;;;7.43;;
22007;SDS011;11168;56.976;24.168;2023-04-12T04:39:24;13.35;;;7.95;;
22007;SDS011;11168;56.976;24.168;2023-04-12T04:41:52;10.80;;;6.90;;
22007;SDS011;11168;56.976;24.168;2023-04-12T04:44:20;14.63;;;7.32;;
22007;SDS011;11168;56.976;24.168;2023-04-12T04:46:47;11.93;;;7.90;;
22007;SDS011;11168;56.976;24.168;2023-04-12T04:49:15;12.35;;;7.72;;
22007;SDS011;11168;56.976;24.168;2023-04-12T04:51:42;11.75;;;7.53;;
22007;SDS011;11168;56.976;24.168;2023-04-12T04:54:09;13.88;;;7.72;;
22007;SDS011;11168;56.976;24.168;2023-04-12T04:56:39;12.45;;;7.15;;
22007;SDS011;11168;56.976;24.168;2023-04-12T04:59:06;16.30;;;7.25;;
22007;SDS011;11168;56.976;24.168;2023-04-12T05:01:34;11.98;;;7.88;;
22007;SDS011;11168;56.976;24.168;2023-04-12T05:04:02;13.88;;;8.07;;
22007;SDS011;11168;56.976;24.168;2023-04-12T05:06:29;10.65;;;7.78;;
22007;SDS011;11168;56.976;24.168;2023-04-12T05:08:57;12.27;;;8.05;;
22007;SDS011;11168;56.976;24.168;2023-04-12T05:11:26;11.25;;;7.28;;
22007;SDS011;11168;56.976;24.168;2023-04-12T05:13:54;12.90;;;7.15;;
22007;SDS011;11168;56.976;24.168;2023-04-12T05:16:21;11.30;;;7.40;;
22007;SDS011;11168;56.976;24.168;2023-04-12T05:18:48;10.02;;;7.00;;
22007;SDS011;11168;56.976;24.168;2023-04-12T05:21:18;8.93;;;6.63;;
22007;SDS011;11168;56.976;24.168;2023-04-12T05:23:47;8.63;;;6.28;;
22007;SDS011;11168;56.976;24.168;2023-04-12T05:26:15;14.68;;;7.60;;
22007;SDS011;11168;56.976;24.168;2023-04-12T05:28:42;13.05;;;7.72;;
22007;SDS011;11168;56.976;24.168;2023-04-12T05:31:10;10.50;;;6.80;;
22007;SDS011;11168;56.976;24.168;2023-04-12T05:33:37;11.45;;;7.20;;
22007;SDS011;11168;56.976;24.168;2023-04-12T05:36:05;12.13;;;6.85;;
22007;SDS011;11168;56.976;24.168;2023-04-12T05:38:32;14.00;;;7.75;;
22007;SDS011;11168;56.976;24.168;2023-04-12T05:41:00;13.32;;;7.38;;
22007;SDS011;11168;56.976;24.168;2023-04-12T05:43:31;12.65;;;7.28;;
22007;SDS011;11168;56.976;24.168;2023-04-12T05:45:58;12.07;;;6.97;;
22007;SDS011;11168;56.976;24.168;2023-04-12T05:48:26;15.38;;;8.20;;
22007;SDS011;11168;56.976;24.168;2023-04-12T05:50:53;14.50;;;7.55;;
22007;SDS011;11168;56.976;24.168;2023-04-12T05:53:21;8.73;;;6.88;;
22007;SDS011;11168;56.976;24.168;2023-04-12T05:55:48;14.40;;;7.82;;
22007;SDS011;11168;56.976;24.168;2023-04-12T05:58:16;13.07;;;8.02;;
22007;SDS011;11168;56.976;24.168;2023-04-12T06:00:44;12.13;;;7.20;;
22007;SDS011;11168;56.976;24.168;2023-04-12T06:03:11;13.68;;;6.82;;
22007;SDS011;11168;56.976;24.168;2023-04-12T06:05:39;15.20;;;7.30;;
22007;SDS011;11168;56.976;24.168;2023-04-12T06:08:06;9.60;;;6.70;;
22007;SDS011;11168;56.976;24.168;2023-04-12T06:10:35;8.27;;;6.55;;
22007;SDS011;11168;56.976;24.168;2023-04-12T06:13:02;12.32;;;5.80;;
22007;SDS011;11168;56.976;24.168;2023-04-12T06:15:30;9.57;;;6.38;;
22007;SDS011;11168;56.976;24.168;2023-04-12T06:17:58;8.50;;;6.15;;
22007;SDS011;11168;56.976;24.168;2023-04-12T06:20:26;12.07;;;6.20;;
22007;SDS011;11168;56.976;24.168;2023-04-12T06:22:53;9.30;;;6.53;;
22007;SDS011;11168;56.976;24.168;2023-04-12T06:25:20;11.35;;;6.20;;
22007;SDS011;11168;56.976;24.168;2023-04-12T06:27:48;8.25;;;6.43;;
22007;SDS011;11168;56.976;24.168;2023-04-12T06:30:15;11.48;;;6.60;;
22007;SDS011;11168;56.976;24.168;2023-04-12T06:32:43;8.70;;;6.50;;
22007;SDS011;11168;56.976;24.168;2023-04-12T06:35:10;12.38;;;6.72;;
22007;SDS011;11168;56.976;24.168;2023-04-12T06:37:37;9.52;;;6.10;;
22007;SDS011;11168;56.976;24.168;2023-04-12T06:40:05;13.50;;;6.63;;
22007;SDS011;11168;56.976;24.168;2023-04-12T06:42:32;11.00;;;6.18;;
22007;SDS011;11168;56.976;24.168;2023-04-12T06:45:00;11.85;;;6.47;;
22007;SDS011;11168;56.976;24.168;2023-04-12T06:47:27;12.05;;;6.68;;
22007;SDS011;11168;56.976;24.168;2023-04-12T06:49:54;14.32;;;6.90;;
22007;SDS011;11168;56.976;24.168;2023-04-12T06:52:23;11.18;;;6.55;;
22007;SDS011;11168;56.976;24.168;2023-04-12T06:54:52;12.05;;;6.82;;
22007;SDS011;11168;56.976;24.168;2023-04-12T06:57:19;10.43;;;6.60;;
22007;SDS011;11168;56.976;24.168;2023-04-12T06:59:46;11.98;;;6.55;;
22007;SDS011;11168;56.976;24.168;2023-04-12T07:02:14;10.13;;;6.38;;
22007;SDS011;11168;56.976;24.168;2023-04-12T07:04:41;8.38;;;5.90;;
22007;SDS011;11168;56.976;24.168;2023-04-12T07:07:09;11.93;;;6.30;;
22007;SDS011;11168;56.976;24.168;2023-04-12T07:09:36;8.82;;;6.40;;
22007;SDS011;11168;56.976;24.168;2023-04-12T07:12:03;11.60;;;6.75;;
22007;SDS011;11168;56.976;24.168;2023-04-12T07:14:31;12.32;;;6.63;;
22007;SDS011;11168;56.976;24.168;2023-04-12T07:16:58;9.80;;;6.05;;
22007;SDS011;11168;56.976;24.168;2023-04-12T07:19:25;10.45;;;5.93;;
22007;SDS011;11168;56.976;24.168;2023-04-12T07:21:54;8.23;;;5.97;;
22007;SDS011;11168;56.976;24.168;2023-04-12T07:24:22;9.98;;;6.13;;
22007;SDS011;11168;56.976;24.168;2023-04-12T07:26:51;12.88;;;6.05;;
22007;SDS011;11168;56.976;24.168;2023-04-12T07:29:19;9.02;;;5.93;;
22007;SDS011;11168;56.976;24.168;2023-04-12T07:31:47;9.45;;;5.57;;
22007;SDS011;11168;56.976;24.168;2023-04-12T07:34:14;8.68;;;6.13;;
22007;SDS011;11168;56.976;24.168;2023-04-12T07:36:41;10.05;;;6.05;;
22007;SDS011;11168;56.976;24.168;2023-04-12T07:39:12;9.15;;;4.97;;
22007;SDS011;11168;56.976;24.168;2023-04-12T07:41:41;7.78;;;5.07;;
22007;SDS011;11168;56.976;24.168;2023-04-12T07:44:11;10.02;;;6.40;;
22007;SDS011;11168;56.976;24.168;2023-04-12T07:46:38;8.25;;;5.80;;
22007;SDS011;11168;56.976;24.168;2023-04-12T07:49:07;5.68;;;4.90;;
22007;SDS011;11168;56.976;24.168;2023-04-12T07:51:35;9.60;;;5.35;;
22007;SDS011;11168;56.976;24.168;2023-04-12T07:54:03;6.03;;;5.15;;
22007;SDS011;11168;56.976;24.168;2023-04-12T07:56:34;7.97;;;5.15;;
22007;SDS011;11168;56.976;24.168;2023-04-12T07:59:01;8.55;;;5.40;;
22007;SDS011;11168;56.976;24.168;2023-04-12T08:01:29;10.68;;;5.47;;
22007;SDS011;11168;56.976;24.168;2023-04-12T08:03:56;8.48;;;5.22;;
22007;SDS011;11168;56.976;24.168;2023-04-12T08:06:24;8.88;;;4.80;;
22007;SDS011;11168;56.976;24.168;2023-04-12T08:08:56;6.78;;;5.13;;
22007;SDS011;11168;56.976;24.168;2023-04-12T08:11:24;7.40;;;4.82;;
22007;SDS011;11168;56.976;24.168;2023-04-12T08:13:51;8.60;;;4.88;;
22007;SDS011;11168;56.976;24.168;2023-04-12T08:16:19;13.35;;;7.45;;
22007;SDS011;11168;56.976;24.168;2023-04-12T08:18:46;7.80;;;5.80;;
22007;SDS011;11168;56.976;24.168;2023-04-12T08:21:14;7.72;;;5.05;;
22007;SDS011;11168;56.976;24.168;2023-04-12T08:23:41;7.22;;;5.00;;
22007;SDS011;11168;56.976;24.168;2023-04-12T08:26:08;9.27;;;5.53;;
22007;SDS011;11168;56.976;24.168;2023-04-12T08:28:35;9.70;;;5.50;;
22007;SDS011;11168;56.976;24.168;2023-04-12T08:31:05;10.82;;;5.60;;
22007;SDS011;11168;56.976;24.168;2023-04-12T08:33:32;8.75;;;5.32;;
22007;SDS011;11168;56.976;24.168;2023-04-12T08:36:00;10.25;;;5.43;;
22007;SDS011;11168;56.976;24.168;2023-04-12T08:38:27;9.38;;;5.38;;
22007;SDS011;11168;56.976;24.168;2023-04-12T08:41:10;12.48;;;5.55;;
22007;SDS011;11168;56.976;24.168;2023-04-12T08:43:39;7.80;;;6.10;;
22007;SDS011;11168;56.976;24.168;2023-04-12T08:46:09;9.95;;;5.65;;
22007;SDS011;11168;56.976;24.168;2023-04-12T08:48:42;7.72;;;5.70;;
22007;SDS011;11168;56.976;24.168;2023-04-12T08:51:12;11.77;;;5.85;;
22007;SDS011;11168;56.976;24.168;2023-04-12T08:53:40;8.15;;;5.47;;
22007;SDS011;11168;56.976;24.168;2023-04-12T08:56:08;8.05;;;5.18;;
22007;SDS011;11168;56.976;24.168;2023-04-12T08:58:40;10.70;;;4.93;;
22007;SDS011;11168;56.976;24.168;2023-04-12T09:01:11;9.07;;;5.05;;
22007;SDS011;11168;56.976;24.168;2023-04-12T09:03:43;8.07;;;5.20;;
22007;SDS011;11168;56.976;24.168;2023-04-12T09:06:11;10.07;;;6.07;;
22007;SDS011;11168;56.976;24.168;2023-04-12T09:08:52;8.05;;;5.50;;
22007;SDS011;11168;56.976;24.168;2023-04-12T09:11:20;10.93;;;5.32;;
22007;SDS011;11168;56.976;24.168;2023-04-12T09:13:48;14.02;;;5.85;;
22007;SDS011;11168;56.976;24.168;2023-04-12T09:16:16;9.32;;;6.07;;
22007;SDS011;11168;56.976;24.168;2023-04-12T09:18:48;10.25;;;5.35;;
22007;SDS011;11168;56.976;24.168;2023-04-12T09:21:17;8.80;;;5.30;;
22007;SDS011;11168;56.976;24.168;2023-04-12T09:23:44;7.38;;;5.60;;
22007;SDS011;11168;56.976;24.168;2023-04-12T09:26:27;6.07;;;5.30;;
22007;SDS011;11168;56.976;24.168;2023-04-12T09:28:56;8.18;;;5.75;;
22007;SDS011;11168;56.976;24.168;2023-04-12T09:31:24;9.75;;;5.25;;
22007;SDS011;11168;56.976;24.168;2023-04-12T09:33:52;7.35;;;5.22;;
22007;SDS011;11168;56.976;24.168;2023-04-12T09:36:35;8.93;;;5.40;;
22007;SDS011;11168;56.976;24.168;2023-04-12T09:39:03;7.95;;;5.45;;
22007;SDS011;11168;56.976;24.168;2023-04-12T09:41:31;7.07;;;5.68;;
22007;SDS011;11168;56.976;24.168;2023-04-12T09:43:59;12.25;;;5.40;;
22007;SDS011;11168;56.976;24.168;2023-04-12T09:46:26;11.35;;;5.97;;
22007;SDS011;11168;56.976;24.168;2023-04-12T09:48:55;7.07;;;5.65;;
22007;SDS011;11168;56.976;24.168;2023-04-12T09:51:24;9.32;;;5.65;;
22007;SDS011;11168;56.976;24.168;2023-04-12T09:53:56;9.02;;;6.15;;
22007;SDS011;11168;56.976;24.168;2023-04-12T09:56:28;11.75;;;5.70;;
22007;SDS011;11168;56.976;24.168;2023-04-12T09:58:59;11.32;;;5.78;;
22007;SDS011;11168;56.976;24.168;2023-04-12T10:01:28;8.18;;;5.55;;
22007;SDS011;11168;56.976;24.168;2023-04-12T10:03:56;10.25;;;5.50;;
22007;SDS011;11168;56.976;24.168;2023-04-12T10:06:24;11.02;;;5.50;;
22007;SDS011;11168;56.976;24.168;2023-04-12T10:08:52;8.77;;;5.22;;
22007;SDS011;11168;56.976;24.168;2023-04-12T10:11:20;9.50;;;5.60;;
22007;SDS011;11168;56.976;24.168;2023-04-12T10:13:48;10.82;;;5.43;;
22007;SDS011;11168;56.976;24.168;2023-04-12T10:16:15;6.78;;;5.80;;
22007;SDS011;11168;56.976;24.168;2023-04-12T10:18:43;7.95;;;5.70;;
22007;SDS011;11168;56.976;24.168;2023-04-12T10:21:12;7.13;;;5.40;;
22007;SDS011;11168;56.976;24.168;2023-04-12T10:23:39;9.88;;;5.50;;
22007;SDS011;11168;56.976;24.168;2023-04-12T10:26:09;9.57;;;5.07;;
22007;SDS011;11168;56.976;24.168;2023-04-12T10:31:29;10.77;;;5.57;;
22007;SDS011;11168;56.976;24.168;2023-04-12T10:34:00;7.47;;;4.88;;
22007;SDS011;11168;56.976;24.168;2023-04-12T10:39:13;11.00;;;4.75;;
22007;SDS011;11168;56.976;24.168;2023-04-12T10:42:13;12.23;;;5.47;;
22007;SDS011;11168;56.976;24.168;2023-04-12T10:44:40;8.63;;;5.20;;
22007;SDS011;11168;56.976;24.168;2023-04-12T10:47:08;11.02;;;5.43;;
22007;SDS011;11168;56.976;24.168;2023-04-12T10:49:37;9.23;;;5.25;;
22007;SDS011;11168;56.976;24.168;2023-04-12T10:57:03;10.52;;;4.97;;
22007;SDS011;11168;56.976;24.168;2023-04-12T11:02:17;9.88;;;4.28;;
22007;SDS011;11168;56.976;24.168;2023-04-12T11:05:03;8.88;;;4.72;;
22007;SDS011;11168;56.976;24.168;2023-04-12T11:07:41;9.20;;;5.20;;
22007;SDS011;11168;56.976;24.168;2023-04-12T11:10:15;7.30;;;4.55;;
22007;SDS011;11168;56.976;24.168;2023-04-12T11:12:48;8.88;;;5.07;;
22007;SDS011;11168;56.976;24.168;2023-04-12T11:15:16;5.68;;;4.80;;
22007;SDS011;11168;56.976;24.168;2023-04-12T11:17:53;6.93;;;4.60;;
22007;SDS011;11168;56.976;24.168;2023-04-12T11:20:21;8.98;;;5.85;;
22007;SDS011;11168;56.976;24.168;2023-04-12T11:22:48;6.50;;;4.93;;
22007;SDS011;11168;56.976;24.168;2023-04-12T11:25:17;6.97;;;4.93;;
22007;SDS011;11168;56.976;24.168;2023-04-12T11:27:48;10.57;;;4.78;;
22007;SDS011;11168;56.976;24.168;2023-04-12T11:30:16;8.25;;;5.25;;
22007;SDS011;11168;56.976;24.168;2023-04-12T11:32:45;8.50;;;4.95;;
22007;SDS011;11168;56.976;24.168;2023-04-12T11:35:16;8.93;;;5.18;;
22007;SDS011;11168;56.976;24.168;2023-04-12T11:37:45;8.85;;;5.45;;
22007;SDS011;11168;56.976;24.168;2023-04-12T11:40:13;6.70;;;5.18;;
22007;SDS011;11168;56.976;24.168;2023-04-12T11:42:40;10.60;;;5.50;;
22007;SDS011;11168;56.976;24.168;2023-04-12T11:45:08;8.77;;;5.45;;
22007;SDS011;11168;56.976;24.168;2023-04-12T11:47:44;8.57;;;5.35;;
22007;SDS011;11168;56.976;24.168;2023-04-12T11:50:12;7.32;;;4.88;;
22007;SDS011;11168;56.976;24.168;2023-04-12T11:52:39;10.90;;;5.60;;
22007;SDS011;11168;56.976;24.168;2023-04-12T11:55:06;12.52;;;7.53;;
22007;SDS011;11168;56.976;24.168;2023-04-12T11:57:37;7.70;;;5.82;;
22007;SDS011;11168;56.976;24.168;2023-04-12T12:00:04;10.07;;;5.47;;
22007;SDS011;11168;56.976;24.168;2023-04-12T12:02:33;10.02;;;5.80;;
22007;SDS011;11168;56.976;24.168;2023-04-12T12:05:14;8.13;;;5.68;;
22007;SDS011;11168;56.976;24.168;2023-04-12T12:07:42;7.40;;;5.68;;
22007;SDS011;11168;56.976;24.168;2023-04-12T12:10:09;9.85;;;5.47;;
22007;SDS011;11168;56.976;24.168;2023-04-12T12:12:46;10.20;;;5.47;;
22007;SDS011;11168;56.976;24.168;2023-04-12T12:15:14;7.50;;;5.13;;
22007;SDS011;11168;56.976;24.168;2023-04-12T12:17:41;8.68;;;5.47;;
22007;SDS011;11168;56.976;24.168;2023-04-12T12:20:17;9.27;;;4.97;;
22007;SDS011;11168;56.976;24.168;2023-04-12T12:22:45;8.70;;;5.57;;
22007;SDS011;11168;56.976;24.168;2023-04-12T12:25:13;11.00;;;5.57;;
22007;SDS011;11168;56.976;24.168;2023-04-12T12:27:40;9.10;;;5.38;;
22007;SDS011;11168;56.976;24.168;2023-04-12T12:30:09;8.05;;;5.00;;
22007;SDS011;11168;56.976;24.168;2023-04-12T12:32:37;12.95;;;5.57;;
22007;SDS011;11168;56.976;24.168;2023-04-12T12:35:09;12.93;;;5.55;;
22007;SDS011;11168;56.976;24.168;2023-04-12T12:37:37;6.50;;;4.70;;
22007;SDS011;11168;56.976;24.168;2023-04-12T12:40:07;9.65;;;5.07;;
22007;SDS011;11168;56.976;24.168;2023-04-12T12:42:48;7.50;;;4.95;;
22007;SDS011;11168;56.976;24.168;2023-04-12T12:45:16;9.80;;;4.57;;
22007;SDS011;11168;56.976;24.168;2023-04-12T12:47:52;7.93;;;5.10;;
22007;SDS011;11168;56.976;24.168;2023-04-12T12:50:22;10.80;;;4.88;;
22007;SDS011;11168;56.976;24.168;2023-04-12T12:52:50;12.27;;;4.88;;
22007;SDS011;11168;56.976;24.168;2023-04-12T12:55:18;7.50;;;5.07;;
22007;SDS011;11168;56.976;24.168;2023-04-12T12:57:47;12.68;;;5.50;;
22007;SDS011;11168;56.976;24.168;2023-04-12T13:00:32;8.20;;;5.10;;
22007;SDS011;11168;56.976;24.168;2023-04-12T13:02:59;10.93;;;4.90;;
22007;SDS011;11168;56.976;24.168;2023-04-12T13:05:28;13.68;;;7.35;;
22007;SDS011;11168;56.976;24.168;2023-04-12T13:07:55;11.77;;;5.00;;
22007;SDS011;11168;56.976;24.168;2023-04-12T13:10:22;9.82;;;5.20;;
22007;SDS011;11168;56.976;24.168;2023-04-12T13:12:51;12.70;;;5.15;;
22007;SDS011;11168;56.976;24.168;2023-04-12T13:15:19;12.80;;;5.95;;
22007;SDS011;11168;56.976;24.168;2023-04-12T13:17:52;12.57;;;4.82;;
22007;SDS011;11168;56.976;24.168;2023-04-12T13:20:20;13.85;;;5.18;;
22007;SDS011;11168;56.976;24.168;2023-04-12T13:22:48;8.85;;;4.93;;
22007;SDS011;11168;56.976;24.168;2023-04-12T13:25:17;8.23;;;4.95;;
22007;SDS011;11168;56.976;24.168;2023-04-12T13:27:48;7.10;;;4.57;;
22007;SDS011;11168;56.976;24.168;2023-04-12T13:30:17;11.00;;;4.75;;
22007;SDS011;11168;56.976;24.168;2023-04-12T13:32:45;10.07;;;4.35;;
22007;SDS011;11168;56.976;24.168;2023-04-12T13:35:12;10.23;;;5.72;;
22007;SDS011;11168;56.976;24.168;2023-04-12T13:37:40;6.68;;;3.97;;
22007;SDS011;11168;56.976;24.168;2023-04-12T13:40:07;8.23;;;4.35;;
22007;SDS011;11168;56.976;24.168;2023-04-12T13:42:34;5.35;;;4.25;;
22007;SDS011;11168;56.976;24.168;2023-04-12T13:45:02;6.97;;;4.28;;
22007;SDS011;11168;56.976;24.168;2023-04-12T13:47:30;9.35;;;4.45;;
22007;SDS011;11168;56.976;24.168;2023-04-12T13:50:02;7.13;;;4.55;;
22007;SDS011;11168;56.976;24.168;2023-04-12T13:52:29;7.32;;;4.00;;
22007;SDS011;11168;56.976;24.168;2023-04-12T13:54:57;9.80;;;3.88;;
22007;SDS011;11168;56.976;24.168;2023-04-12T13:57:24;12.80;;;6.00;;
22007;SDS011;11168;56.976;24.168;2023-04-12T13:59:52;5.72;;;4.13;;
22007;SDS011;11168;56.976;24.168;2023-04-12T14:02:19;9.60;;;4.80;;
22007;SDS011;11168;56.976;24.168;2023-04-12T14:04:50;9.60;;;4.65;;
22007;SDS011;11168;56.976;24.168;2023-04-12T14:07:18;6.00;;;3.70;;
22007;SDS011;11168;56.976;24.168;2023-04-12T14:09:45;9.75;;;4.20;;
22007;SDS011;11168;56.976;24.168;2023-04-12T14:12:14;7.78;;;4.18;;
22007;SDS011;11168;56.976;24.168;2023-04-12T14:14:41;7.03;;;3.75;;
22007;SDS011;11168;56.976;24.168;2023-04-12T14:17:08;9.35;;;4.15;;
22007;SDS011;11168;56.976;24.168;2023-04-12T14:19:36;6.05;;;3.75;;
22007;SDS011;11168;56.976;24.168;2023-04-12T14:22:04;6.80;;;3.90;;
22007;SDS011;11168;56.976;24.168;2023-04-12T14:24:31;9.00;;;3.78;;
22007;SDS011;11168;56.976;24.168;2023-04-12T14:26:58;8.55;;;4.05;;
22007;SDS011;11168;56.976;24.168;2023-04-12T14:29:26;9.95;;;4.07;;
22007;SDS011;11168;56.976;24.168;2023-04-12T14:31:54;8.65;;;4.07;;
22007;SDS011;11168;56.976;24.168;2023-04-12T14:34:21;7.53;;;4.05;;
22007;SDS011;11168;56.976;24.168;2023-04-12T14:36:48;6.80;;;3.70;;
22007;SDS011;11168;56.976;24.168;2023-04-12T14:39:16;6.85;;;4.65;;
22007;SDS011;11168;56.976;24.168;2023-04-12T14:41:43;8.18;;;5.30;;
22007;SDS011;11168;56.976;24.168;2023-04-12T14:44:10;7.68;;;4.53;;
22007;SDS011;11168;56.976;24.168;2023-04-12T14:46:37;10.43;;;4.07;;
22007;SDS011;11168;56.976;24.168;2023-04-12T14:49:05;9.27;;;3.70;;
22007;SDS011;11168;56.976;24.168;2023-04-12T14:51:32;11.05;;;4.35;;
22007;SDS011;11168;56.976;24.168;2023-04-12T14:54:00;9.27;;;4.35;;
22007;SDS011;11168;56.976;24.168;2023-04-12T14:56:27;9.55;;;3.95;;
22007;SDS011;11168;56.976;24.168;2023-04-12T14:58:56;8.38;;;4.13;;
22007;SDS011;11168;56.976;24.168;2023-04-12T15:01:24;8.73;;;4.38;;
22007;SDS011;11168;56.976;24.168;2023-04-12T15:03:52;11.23;;;3.92;;
22007;SDS011;11168;56.976;24.168;2023-04-12T15:06:21;10.38;;;4.20;;
22007;SDS011;11168;56.976;24.168;2023-04-12T15:08:51;13.75;;;4.40;;